sensor_id;sensor_type;location;lat;lon;timestamp;P1;durP1;ratioP1;P2;durP2;ratioP2
10523;SDS011;5310;48.638;9.060;2022-11-04T00:01:15;0.70;;;0.70;;
10523;SDS011;5310;48.638;9.060;2022-11-04T00:03:41;0.60;;;0.60;;
10523;SDS011;5310;48.638;9.060;2022-11-04T00:06:07;0.60;;;0.60;;
10523;SDS011;5310;48.638;9.060;2022-11-04T00:08:33;0.50;;;0.50;;
10523;SDS011;5310;48.638;9.060;2022-11-04T00:10:59;0.60;;;0.60;;
10523;SDS011;5310;48.638;9.060;2022-11-04T00:13:45;0.60;;;0.60;;
10523;SDS011;5310;48.638;9.060;2022-11-04T00:16:11;0.70;;;0.70;;
10523;SDS011;5310;48.638;9.060;2022-11-04T00:18:56;0.70;;;0.70;;
10523;SDS011;5310;48.638;9.060;2022-11-04T00:21:23;0.60;;;0.60;;
10523;SDS011;5310;48.638;9.060;2022-11-04T00:24:09;0.60;;;0.60;;
10523;SDS011;5310;48.638;9.060;2022-11-04T00:26:54;0.60;;;0.60;;
10523;SDS011;5310;48.638;9.060;2022-11-04T00:29:38;0.77;;;0.77;;
10523;SDS011;5310;48.638;9.060;2022-11-04T00:32:04;0.63;;;0.63;;
10523;SDS011;5310;48.638;9.060;2022-11-04T00:34:49;0.60;;;0.60;;
10523;SDS011;5310;48.638;9.060;2022-11-04T00:37:15;0.70;;;0.70;;
10523;SDS011;5310;48.638;9.060;2022-11-04T00:39:40;0.60;;;0.60;;
10523;SDS011;5310;48.638;9.060;2022-11-04T00:42:06;0.80;;;0.80;;
10523;SDS011;5310;48.638;9.060;2022-11-04T00:44:32;0.70;;;0.70;;
10523;SDS011;5310;48.638;9.060;2022-11-04T00:46:57;0.70;;;0.70;;
10523;SDS011;5310;48.638;9.060;2022-11-04T00:49:23;0.70;;;0.70;;
10523;SDS011;5310;48.638;9.060;2022-11-04T00:51:49;0.60;;;0.60;;
10523;SDS011;5310;48.638;9.060;2022-11-04T00:54:15;0.70;;;0.70;;
10523;SDS011;5310;48.638;9.060;2022-11-04T00:56:41;0.70;;;0.70;;
10523;SDS011;5310;48.638;9.060;2022-11-04T00:59:07;0.60;;;0.60;;
10523;SDS011;5310;48.638;9.060;2022-11-04T01:01:34;0.60;;;0.60;;
10523;SDS011;5310;48.638;9.060;2022-11-04T01:03:59;0.70;;;0.70;;
10523;SDS011;5310;48.638;9.060;2022-11-04T01:06:25;0.70;;;0.70;;
10523;SDS011;5310;48.638;9.060;2022-11-04T01:08:55;0.60;;;0.60;;
10523;SDS011;5310;48.638;9.060;2022-11-04T01:11:26;0.60;;;0.60;;
10523;SDS011;5310;48.638;9.060;2022-11-04T01:13:53;0.70;;;0.70;;
10523;SDS011;5310;48.638;9.060;2022-11-04T01:16:19;0.60;;;0.60;;
10523;SDS011;5310;48.638;9.060;2022-11-04T01:18:45;0.70;;;0.70;;
10523;SDS011;5310;48.638;9.060;2022-11-04T01:21:12;0.70;;;0.70;;
10523;SDS011;5310;48.638;9.060;2022-11-04T01:23:40;0.60;;;0.60;;
10523;SDS011;5310;48.638;9.060;2022-11-04T01:26:08;0.70;;;0.70;;
10523;SDS011;5310;48.638;9.060;2022-11-04T01:28:35;0.70;;;0.70;;
10523;SDS011;5310;48.638;9.060;2022-11-04T01:31:20;0.67;;;0.67;;
10523;SDS011;5310;48.638;9.060;2022-11-04T01:33:46;0.70;;;0.70;;
10523;SDS011;5310;48.638;9.060;2022-11-04T01:36:13;0.70;;;0.70;;
10523;SDS011;5310;48.638;9.060;2022-11-04T01:38:39;0.73;;;0.73;;
10523;SDS011;5310;48.638;9.060;2022-11-04T01:41:06;0.67;;;0.67;;
10523;SDS011;5310;48.638;9.060;2022-11-04T01:46:08;0.70;;;0.70;;
10523;SDS011;5310;48.638;9.060;2022-11-04T01:48:40;0.70;;;0.70;;
10523;SDS011;5310;48.638;9.060;2022-11-04T01:51:06;0.70;;;0.70;;
10523;SDS011;5310;48.638;9.060;2022-11-04T01:53:33;0.60;;;0.60;;
10523;SDS011;5310;48.638;9.060;2022-11-04T01:56:01;0.60;;;0.60;;
10523;SDS011;5310;48.638;9.060;2022-11-04T01:58:36;0.60;;;0.60;;
10523;SDS011;5310;48.638;9.060;2022-11-04T02:01:06;0.70;;;0.70;;
10523;SDS011;5310;48.638;9.060;2022-11-04T02:03:34;0.70;;;0.70;;
10523;SDS011;5310;48.638;9.060;2022-11-04T02:06:02;0.63;;;0.63;;
10523;SDS011;5310;48.638;9.060;2022-11-04T02:08:29;0.60;;;0.60;;
10523;SDS011;5310;48.638;9.060;2022-11-04T02:10:58;0.70;;;0.70;;
10523;SDS011;5310;48.638;9.060;2022-11-04T02:13:26;0.70;;;0.70;;
10523;SDS011;5310;48.638;9.060;2022-11-04T02:16:08;0.70;;;0.70;;
10523;SDS011;5310;48.638;9.060;2022-11-04T02:18:46;0.70;;;0.70;;
10523;SDS011;5310;48.638;9.060;2022-11-04T02:29:14;0.70;;;0.70;;
10523;SDS011;5310;48.638;9.060;2022-11-04T02:34:37;0.70;;;0.70;;
10523;SDS011;5310;48.638;9.060;2022-11-04T02:37:35;0.80;;;0.80;;
10523;SDS011;5310;48.638;9.060;2022-11-04T02:43:01;0.73;;;0.73;;
10523;SDS011;5310;48.638;9.060;2022-11-04T02:45:48;0.70;;;0.70;;
10523;SDS011;5310;48.638;9.060;2022-11-04T02:48:24;0.80;;;0.80;;
10523;SDS011;5310;48.638;9.060;2022-11-04T02:50:58;0.70;;;0.70;;
10523;SDS011;5310;48.638;9.060;2022-11-04T02:53:30;0.80;;;0.80;;
10523;SDS011;5310;48.638;9.060;2022-11-04T02:56:04;0.70;;;0.70;;
10523;SDS011;5310;48.638;9.060;2022-11-04T02:58:33;0.80;;;0.80;;
10523;SDS011;5310;48.638;9.060;2022-11-04T03:01:07;0.60;;;0.60;;
10523;SDS011;5310;48.638;9.060;2022-11-04T03:03:41;0.70;;;0.70;;
10523;SDS011;5310;48.638;9.060;2022-11-04T03:06:09;0.70;;;0.70;;
10523;SDS011;5310;48.638;9.060;2022-11-04T03:08:39;0.70;;;0.70;;
10523;SDS011;5310;48.638;9.060;2022-11-04T03:11:10;0.70;;;0.70;;
10523;SDS011;5310;48.638;9.060;2022-11-04T03:16:13;0.70;;;0.70;;
10523;SDS011;5310;48.638;9.060;2022-11-04T03:21:57;0.80;;;0.80;;
10523;SDS011;5310;48.638;9.060;2022-11-04T03:24:25;0.80;;;0.80;;
10523;SDS011;5310;48.638;9.060;2022-11-04T03:26:54;0.80;;;0.80;;
10523;SDS011;5310;48.638;9.060;2022-11-04T03:32:00;0.77;;;0.77;;
10523;SDS011;5310;48.638;9.060;2022-11-04T03:34:28;0.80;;;0.80;;
10523;SDS011;5310;48.638;9.060;2022-11-04T03:36:56;0.80;;;0.80;;
10523;SDS011;5310;48.638;9.060;2022-11-04T03:39:21;0.80;;;0.80;;
10523;SDS011;5310;48.638;9.060;2022-11-04T03:41:57;0.80;;;0.80;;
10523;SDS011;5310;48.638;9.060;2022-11-04T03:44:27;0.80;;;0.80;;
10523;SDS011;5310;48.638;9.060;2022-11-04T03:46:54;0.80;;;0.80;;
10523;SDS011;5310;48.638;9.060;2022-11-04T03:49:20;0.70;;;0.70;;
10523;SDS011;5310;48.638;9.060;2022-11-04T03:51:47;0.80;;;0.80;;
10523;SDS011;5310;48.638;9.060;2022-11-04T03:54:14;0.70;;;0.70;;
10523;SDS011;5310;48.638;9.060;2022-11-04T03:56:55;0.80;;;0.80;;
10523;SDS011;5310;48.638;9.060;2022-11-04T04:02:06;0.90;;;0.90;;
10523;SDS011;5310;48.638;9.060;2022-11-04T04:04:35;0.80;;;0.80;;
10523;SDS011;5310;48.638;9.060;2022-11-04T04:07:12;0.80;;;0.80;;
10523;SDS011;5310;48.638;9.060;2022-11-04T04:09:43;0.70;;;0.70;;
10523;SDS011;5310;48.638;9.060;2022-11-04T04:12:16;0.70;;;0.70;;
10523;SDS011;5310;48.638;9.060;2022-11-04T04:14:52;0.70;;;0.70;;
10523;SDS011;5310;48.638;9.060;2022-11-04T04:17:35;0.70;;;0.70;;
10523;SDS011;5310;48.638;9.060;2022-11-04T04:20:05;0.70;;;0.70;;
10523;SDS011;5310;48.638;9.060;2022-11-04T04:22:40;0.70;;;0.70;;
10523;SDS011;5310;48.638;9.060;2022-11-04T04:25:09;0.70;;;0.70;;
10523;SDS011;5310;48.638;9.060;2022-11-04T04:27:54;0.70;;;0.70;;
10523;SDS011;5310;48.638;9.060;2022-11-04T04:30:21;0.70;;;0.70;;
10523;SDS011;5310;48.638;9.060;2022-11-04T04:32:51;0.80;;;0.80;;
10523;SDS011;5310;48.638;9.060;2022-11-04T04:35:19;0.90;;;0.90;;
10523;SDS011;5310;48.638;9.060;2022-11-04T04:38:05;0.80;;;0.80;;
10523;SDS011;5310;48.638;9.060;2022-11-04T04:41:12;0.80;;;0.80;;
10523;SDS011;5310;48.638;9.060;2022-11-04T04:44:00;0.80;;;0.80;;
10523;SDS011;5310;48.638;9.060;2022-11-04T04:46:46;0.80;;;0.80;;
10523;SDS011;5310;48.638;9.060;2022-11-04T04:49:14;0.80;;;0.80;;
10523;SDS011;5310;48.638;9.060;2022-11-04T04:51:40;0.70;;;0.70;;
10523;SDS011;5310;48.638;9.060;2022-11-04T04:54:07;0.70;;;0.70;;
10523;SDS011;5310;48.638;9.060;2022-11-04T04:56:33;0.80;;;0.80;;
10523;SDS011;5310;48.638;9.060;2022-11-04T04:59:00;0.87;;;0.87;;
10523;SDS011;5310;48.638;9.060;2022-11-04T05:01:26;0.87;;;0.87;;
10523;SDS011;5310;48.638;9.060;2022-11-04T05:03:51;0.80;;;0.80;;
10523;SDS011;5310;48.638;9.060;2022-11-04T05:06:17;0.80;;;0.80;;
10523;SDS011;5310;48.638;9.060;2022-11-04T05:08:43;0.77;;;0.77;;
10523;SDS011;5310;48.638;9.060;2022-11-04T05:11:09;0.70;;;0.70;;
10523;SDS011;5310;48.638;9.060;2022-11-04T05:13:35;0.80;;;0.80;;
10523;SDS011;5310;48.638;9.060;2022-11-04T05:16:03;0.77;;;0.77;;
10523;SDS011;5310;48.638;9.060;2022-11-04T05:18:29;0.83;;;0.83;;
10523;SDS011;5310;48.638;9.060;2022-11-04T05:20:55;0.80;;;0.80;;
10523;SDS011;5310;48.638;9.060;2022-11-04T05:23:22;0.80;;;0.80;;
10523;SDS011;5310;48.638;9.060;2022-11-04T05:25:48;0.90;;;0.90;;
10523;SDS011;5310;48.638;9.060;2022-11-04T05:28:15;0.87;;;0.87;;
10523;SDS011;5310;48.638;9.060;2022-11-04T05:30:41;0.80;;;0.80;;
10523;SDS011;5310;48.638;9.060;2022-11-04T05:33:08;0.80;;;0.80;;
10523;SDS011;5310;48.638;9.060;2022-11-04T05:35:34;0.80;;;0.80;;
10523;SDS011;5310;48.638;9.060;2022-11-04T05:38:00;0.90;;;0.90;;
10523;SDS011;5310;48.638;9.060;2022-11-04T05:40:26;0.80;;;0.80;;
10523;SDS011;5310;48.638;9.060;2022-11-04T05:42:52;0.80;;;0.80;;
10523;SDS011;5310;48.638;9.060;2022-11-04T05:45:18;0.80;;;0.80;;
10523;SDS011;5310;48.638;9.060;2022-11-04T05:47:44;0.80;;;0.80;;
10523;SDS011;5310;48.638;9.060;2022-11-04T05:50:09;0.90;;;0.90;;
10523;SDS011;5310;48.638;9.060;2022-11-04T05:52:35;0.80;;;0.80;;
10523;SDS011;5310;48.638;9.060;2022-11-04T05:55:01;0.80;;;0.80;;
10523;SDS011;5310;48.638;9.060;2022-11-04T05:57:27;0.80;;;0.80;;
10523;SDS011;5310;48.638;9.060;2022-11-04T05:59:53;0.80;;;0.80;;
10523;SDS011;5310;48.638;9.060;2022-11-04T06:02:19;0.80;;;0.80;;
10523;SDS011;5310;48.638;9.060;2022-11-04T06:04:45;0.80;;;0.80;;
10523;SDS011;5310;48.638;9.060;2022-11-04T06:07:11;0.80;;;0.80;;
10523;SDS011;5310;48.638;9.060;2022-11-04T06:09:37;0.80;;;0.80;;
10523;SDS011;5310;48.638;9.060;2022-11-04T06:12:13;0.83;;;0.83;;
10523;SDS011;5310;48.638;9.060;2022-11-04T06:14:40;0.80;;;0.80;;
10523;SDS011;5310;48.638;9.060;2022-11-04T06:17:06;0.80;;;0.80;;
10523;SDS011;5310;48.638;9.060;2022-11-04T06:19:32;0.80;;;0.80;;
10523;SDS011;5310;48.638;9.060;2022-11-04T06:21:58;0.80;;;0.80;;
10523;SDS011;5310;48.638;9.060;2022-11-04T06:24:24;0.83;;;0.83;;
10523;SDS011;5310;48.638;9.060;2022-11-04T06:26:50;1.00;;;1.00;;
10523;SDS011;5310;48.638;9.060;2022-11-04T06:29:16;0.80;;;0.80;;
10523;SDS011;5310;48.638;9.060;2022-11-04T06:31:42;0.80;;;0.80;;
10523;SDS011;5310;48.638;9.060;2022-11-04T06:34:07;0.80;;;0.80;;
10523;SDS011;5310;48.638;9.060;2022-11-04T06:36:33;0.80;;;0.80;;
10523;SDS011;5310;48.638;9.060;2022-11-04T06:39:00;0.80;;;0.80;;
10523;SDS011;5310;48.638;9.060;2022-11-04T06:41:26;0.90;;;0.90;;
10523;SDS011;5310;48.638;9.060;2022-11-04T06:43:52;1.00;;;1.00;;
10523;SDS011;5310;48.638;9.060;2022-11-04T06:46:29;0.80;;;0.80;;
10523;SDS011;5310;48.638;9.060;2022-11-04T06:48:56;0.90;;;0.90;;
10523;SDS011;5310;48.638;9.060;2022-11-04T06:51:22;0.80;;;0.80;;
10523;SDS011;5310;48.638;9.060;2022-11-04T06:53:48;1.00;;;1.00;;
10523;SDS011;5310;48.638;9.060;2022-11-04T06:56:14;0.90;;;0.90;;
10523;SDS011;5310;48.638;9.060;2022-11-04T06:58:40;0.90;;;0.90;;
10523;SDS011;5310;48.638;9.060;2022-11-04T07:01:06;0.80;;;0.80;;
10523;SDS011;5310;48.638;9.060;2022-11-04T07:03:32;0.80;;;0.80;;
10523;SDS011;5310;48.638;9.060;2022-11-04T07:06:03;0.90;;;0.90;;
10523;SDS011;5310;48.638;9.060;2022-11-04T07:08:29;0.90;;;0.90;;
10523;SDS011;5310;48.638;9.060;2022-11-04T07:10:55;0.87;;;0.87;;
10523;SDS011;5310;48.638;9.060;2022-11-04T07:13:22;0.93;;;0.93;;
10523;SDS011;5310;48.638;9.060;2022-11-04T07:15:48;0.90;;;0.90;;
10523;SDS011;5310;48.638;9.060;2022-11-04T07:18:14;0.80;;;0.80;;
10523;SDS011;5310;48.638;9.060;2022-11-04T07:20:40;0.90;;;0.90;;
10523;SDS011;5310;48.638;9.060;2022-11-04T07:23:06;0.80;;;0.80;;
10523;SDS011;5310;48.638;9.060;2022-11-04T07:25:32;0.90;;;0.90;;
10523;SDS011;5310;48.638;9.060;2022-11-04T07:27:58;0.90;;;0.90;;
10523;SDS011;5310;48.638;9.060;2022-11-04T07:30:25;0.83;;;0.83;;
10523;SDS011;5310;48.638;9.060;2022-11-04T07:32:51;0.90;;;0.90;;
10523;SDS011;5310;48.638;9.060;2022-11-04T07:35:18;0.90;;;0.90;;
10523;SDS011;5310;48.638;9.060;2022-11-04T07:37:44;0.80;;;0.80;;
10523;SDS011;5310;48.638;9.060;2022-11-04T07:40:10;0.90;;;0.90;;
10523;SDS011;5310;48.638;9.060;2022-11-04T07:42:36;0.90;;;0.90;;
10523;SDS011;5310;48.638;9.060;2022-11-04T07:45:03;0.90;;;0.90;;
10523;SDS011;5310;48.638;9.060;2022-11-04T07:47:29;0.90;;;0.90;;
10523;SDS011;5310;48.638;9.060;2022-11-04T07:49:55;0.77;;;0.77;;
10523;SDS011;5310;48.638;9.060;2022-11-04T07:52:21;0.73;;;0.73;;
10523;SDS011;5310;48.638;9.060;2022-11-04T07:54:48;0.90;;;0.90;;
10523;SDS011;5310;48.638;9.060;2022-11-04T07:57:15;0.80;;;0.80;;
10523;SDS011;5310;48.638;9.060;2022-11-04T07:59:40;0.70;;;0.70;;
10523;SDS011;5310;48.638;9.060;2022-11-04T08:02:06;0.90;;;0.90;;
10523;SDS011;5310;48.638;9.060;2022-11-04T08:04:33;0.90;;;0.90;;
10523;SDS011;5310;48.638;9.060;2022-11-04T08:07:01;0.90;;;0.90;;
10523;SDS011;5310;48.638;9.060;2022-11-04T08:09:27;0.80;;;0.80;;
10523;SDS011;5310;48.638;9.060;2022-11-04T08:11:53;0.80;;;0.80;;
10523;SDS011;5310;48.638;9.060;2022-11-04T08:14:18;0.87;;;0.87;;
10523;SDS011;5310;48.638;9.060;2022-11-04T08:16:44;0.80;;;0.80;;
10523;SDS011;5310;48.638;9.060;2022-11-04T08:19:10;0.80;;;0.80;;
10523;SDS011;5310;48.638;9.060;2022-11-04T08:21:36;0.90;;;0.90;;
10523;SDS011;5310;48.638;9.060;2022-11-04T08:24:03;0.80;;;0.80;;
10523;SDS011;5310;48.638;9.060;2022-11-04T08:26:30;0.80;;;0.80;;
10523;SDS011;5310;48.638;9.060;2022-11-04T08:28:56;0.70;;;0.70;;
10523;SDS011;5310;48.638;9.060;2022-11-04T08:31:23;0.80;;;0.80;;
10523;SDS011;5310;48.638;9.060;2022-11-04T08:33:49;0.80;;;0.80;;
10523;SDS011;5310;48.638;9.060;2022-11-04T08:36:22;0.77;;;0.77;;
10523;SDS011;5310;48.638;9.060;2022-11-04T08:38:49;0.70;;;0.70;;
10523;SDS011;5310;48.638;9.060;2022-11-04T08:41:16;0.80;;;0.80;;
10523;SDS011;5310;48.638;9.060;2022-11-04T08:43:43;0.70;;;0.70;;
10523;SDS011;5310;48.638;9.060;2022-11-04T08:46:10;0.70;;;0.70;;
10523;SDS011;5310;48.638;9.060;2022-11-04T08:48:36;0.60;;;0.60;;
10523;SDS011;5310;48.638;9.060;2022-11-04T08:51:03;0.60;;;0.60;;
10523;SDS011;5310;48.638;9.060;2022-11-04T08:53:30;0.70;;;0.70;;
10523;SDS011;5310;48.638;9.060;2022-11-04T08:55:55;0.60;;;0.60;;
10523;SDS011;5310;48.638;9.060;2022-11-04T08:58:21;0.70;;;0.70;;
10523;SDS011;5310;48.638;9.060;2022-11-04T09:00:48;0.60;;;0.60;;
10523;SDS011;5310;48.638;9.060;2022-11-04T09:03:15;0.70;;;0.70;;
10523;SDS011;5310;48.638;9.060;2022-11-04T09:05:41;0.70;;;0.70;;
10523;SDS011;5310;48.638;9.060;2022-11-04T09:08:11;0.70;;;0.70;;
10523;SDS011;5310;48.638;9.060;2022-11-04T09:10:41;0.70;;;0.70;;
10523;SDS011;5310;48.638;9.060;2022-11-04T09:13:08;0.60;;;0.60;;
10523;SDS011;5310;48.638;9.060;2022-11-04T09:15:35;0.57;;;0.57;;
10523;SDS011;5310;48.638;9.060;2022-11-04T09:18:02;0.60;;;0.60;;
10523;SDS011;5310;48.638;9.060;2022-11-04T09:20:28;0.70;;;0.70;;
10523;SDS011;5310;48.638;9.060;2022-11-04T09:22:55;0.60;;;0.60;;
10523;SDS011;5310;48.638;9.060;2022-11-04T09:25:21;0.60;;;0.60;;
10523;SDS011;5310;48.638;9.060;2022-11-04T09:27:46;0.67;;;0.67;;
10523;SDS011;5310;48.638;9.060;2022-11-04T09:30:13;0.70;;;0.70;;
10523;SDS011;5310;48.638;9.060;2022-11-04T09:32:40;0.70;;;0.70;;
10523;SDS011;5310;48.638;9.060;2022-11-04T09:35:06;0.60;;;0.60;;
10523;SDS011;5310;48.638;9.060;2022-11-04T09:37:33;0.70;;;0.70;;
10523;SDS011;5310;48.638;9.060;2022-11-04T09:39:58;0.60;;;0.60;;
10523;SDS011;5310;48.638;9.060;2022-11-04T09:42:36;0.60;;;0.60;;
10523;SDS011;5310;48.638;9.060;2022-11-04T09:45:35;0.70;;;0.70;;
10523;SDS011;5310;48.638;9.060;2022-11-04T09:48:05;0.60;;;0.60;;
10523;SDS011;5310;48.638;9.060;2022-11-04T09:50:46;0.60;;;0.60;;
10523;SDS011;5310;48.638;9.060;2022-11-04T09:53:17;0.63;;;0.63;;
10523;SDS011;5310;48.638;9.060;2022-11-04T09:56:01;0.60;;;0.60;;
10523;SDS011;5310;48.638;9.060;2022-11-04T09:58:33;0.60;;;0.60;;
10523;SDS011;5310;48.638;9.060;2022-11-04T10:03:42;0.60;;;0.60;;
10523;SDS011;5310;48.638;9.060;2022-11-04T10:06:32;0.60;;;0.60;;
10523;SDS011;5310;48.638;9.060;2022-11-04T10:11:52;0.50;;;0.50;;
10523;SDS011;5310;48.638;9.060;2022-11-04T10:14:34;0.57;;;0.57;;
10523;SDS011;5310;48.638;9.060;2022-11-04T10:17:39;0.60;;;0.60;;
10523;SDS011;5310;48.638;9.060;2022-11-04T10:20:28;0.60;;;0.60;;
10523;SDS011;5310;48.638;9.060;2022-11-04T10:22:57;0.50;;;0.50;;
10523;SDS011;5310;48.638;9.060;2022-11-04T10:25:33;0.50;;;0.50;;
10523;SDS011;5310;48.638;9.060;2022-11-04T10:28:11;0.60;;;0.60;;
10523;SDS011;5310;48.638;9.060;2022-11-04T10:30:38;0.60;;;0.60;;
10523;SDS011;5310;48.638;9.060;2022-11-04T10:36:08;0.60;;;0.60;;
10523;SDS011;5310;48.638;9.060;2022-11-04T10:38:47;0.60;;;0.60;;
10523;SDS011;5310;48.638;9.060;2022-11-04T10:44:03;0.63;;;0.63;;
10523;SDS011;5310;48.638;9.060;2022-11-04T10:49:07;0.70;;;0.70;;
10523;SDS011;5310;48.638;9.060;2022-11-04T10:51:51;0.60;;;0.60;;
10523;SDS011;5310;48.638;9.060;2022-11-04T10:54:17;0.50;;;0.50;;
10523;SDS011;5310;48.638;9.060;2022-11-04T10:56:44;0.60;;;0.60;;
10523;SDS011;5310;48.638;9.060;2022-11-04T11:01:59;0.60;;;0.60;;
10523;SDS011;5310;48.638;9.060;2022-11-04T11:04:27;0.60;;;0.60;;
10523;SDS011;5310;48.638;9.060;2022-11-04T11:07:01;0.60;;;0.60;;
10523;SDS011;5310;48.638;9.060;2022-11-04T11:09:31;0.60;;;0.60;;
10523;SDS011;5310;48.638;9.060;2022-11-04T11:14:38;0.60;;;0.60;;
10523;SDS011;5310;48.638;9.060;2022-11-04T11:22:25;0.50;;;0.50;;
10523;SDS011;5310;48.638;9.060;2022-11-04T11:27:50;0.60;;;0.60;;
10523;SDS011;5310;48.638;9.060;2022-11-04T11:30:18;0.60;;;0.60;;
10523;SDS011;5310;48.638;9.060;2022-11-04T11:32:44;0.60;;;0.60;;
10523;SDS011;5310;48.638;9.060;2022-11-04T11:35:17;0.60;;;0.60;;
10523;SDS011;5310;48.638;9.060;2022-11-04T11:37:46;0.67;;;0.67;;
10523;SDS011;5310;48.638;9.060;2022-11-04T11:40:25;0.60;;;0.60;;
10523;SDS011;5310;48.638;9.060;2022-11-04T11:42:51;0.50;;;0.50;;
10523;SDS011;5310;48.638;9.060;2022-11-04T11:45:18;0.50;;;0.50;;
10523;SDS011;5310;48.638;9.060;2022-11-04T11:47:45;0.50;;;0.50;;
10523;SDS011;5310;48.638;9.060;2022-11-04T11:52:37;0.50;;;0.50;;
10523;SDS011;5310;48.638;9.060;2022-11-04T11:55:05;0.53;;;0.53;;
10523;SDS011;5310;48.638;9.060;2022-11-04T11:58:00;0.50;;;0.50;;
10523;SDS011;5310;48.638;9.060;2022-11-04T12:00:36;0.50;;;0.50;;
10523;SDS011;5310;48.638;9.060;2022-11-04T12:03:13;0.60;;;0.60;;
10523;SDS011;5310;48.638;9.060;2022-11-04T12:05:51;0.47;;;0.47;;
10523;SDS011;5310;48.638;9.060;2022-11-04T12:13:55;0.50;;;0.50;;
10523;SDS011;5310;48.638;9.060;2022-11-04T12:19:15;0.50;;;0.50;;
10523;SDS011;5310;48.638;9.060;2022-11-04T12:27:08;0.60;;;0.60;;
10523;SDS011;5310;48.638;9.060;2022-11-04T12:32:26;0.50;;;0.50;;
10523;SDS011;5310;48.638;9.060;2022-11-04T12:40:40;0.40;;;0.40;;
10523;SDS011;5310;48.638;9.060;2022-11-04T12:43:15;0.50;;;0.50;;
10523;SDS011;5310;48.638;9.060;2022-11-04T12:53:33;0.50;;;0.50;;
10523;SDS011;5310;48.638;9.060;2022-11-04T12:56:08;0.50;;;0.50;;
10523;SDS011;5310;48.638;9.060;2022-11-04T13:03:52;0.70;;;0.70;;
10523;SDS011;5310;48.638;9.060;2022-11-04T13:06:40;0.60;;;0.60;;
10523;SDS011;5310;48.638;9.060;2022-11-04T13:09:09;0.50;;;0.50;;
10523;SDS011;5310;48.638;9.060;2022-11-04T13:14:28;0.60;;;0.60;;
10523;SDS011;5310;48.638;9.060;2022-11-04T13:17:02;0.50;;;0.50;;
10523;SDS011;5310;48.638;9.060;2022-11-04T13:19:32;0.50;;;0.50;;
10523;SDS011;5310;48.638;9.060;2022-11-04T13:22:07;0.50;;;0.50;;
10523;SDS011;5310;48.638;9.060;2022-11-04T13:24:48;0.50;;;0.50;;
10523;SDS011;5310;48.638;9.060;2022-11-04T13:27:17;0.50;;;0.50;;
10523;SDS011;5310;48.638;9.060;2022-11-04T13:29:44;0.47;;;0.47;;
10523;SDS011;5310;48.638;9.060;2022-11-04T13:32:14;0.50;;;0.50;;
10523;SDS011;5310;48.638;9.060;2022-11-04T13:37:23;0.50;;;0.50;;
10523;SDS011;5310;48.638;9.060;2022-11-04T13:39:51;0.50;;;0.50;;
10523;SDS011;5310;48.638;9.060;2022-11-04T13:42:58;0.40;;;0.40;;
10523;SDS011;5310;48.638;9.060;2022-11-04T13:46:02;0.40;;;0.40;;
10523;SDS011;5310;48.638;9.060;2022-11-04T13:48:34;0.60;;;0.60;;
10523;SDS011;5310;48.638;9.060;2022-11-04T13:51:09;0.50;;;0.50;;
10523;SDS011;5310;48.638;9.060;2022-11-04T13:56:36;0.63;;;0.63;;
10523;SDS011;5310;48.638;9.060;2022-11-04T13:59:17;0.60;;;0.60;;
10523;SDS011;5310;48.638;9.060;2022-11-04T14:01:46;0.40;;;0.40;;
10523;SDS011;5310;48.638;9.060;2022-11-04T14:06:59;0.50;;;0.50;;
10523;SDS011;5310;48.638;9.060;2022-11-04T14:14:33;0.50;;;0.50;;
10523;SDS011;5310;48.638;9.060;2022-11-04T14:16:59;0.60;;;0.60;;
10523;SDS011;5310;48.638;9.060;2022-11-04T14:22:14;0.60;;;0.60;;
10523;SDS011;5310;48.638;9.060;2022-11-04T14:24:40;0.50;;;0.50;;
10523;SDS011;5310;48.638;9.060;2022-11-04T14:27:19;0.60;;;0.60;;
10523;SDS011;5310;48.638;9.060;2022-11-04T14:29:49;0.60;;;0.60;;
10523;SDS011;5310;48.638;9.060;2022-11-04T14:32:17;0.60;;;0.60;;
10523;SDS011;5310;48.638;9.060;2022-11-04T14:34:56;0.60;;;0.60;;
10523;SDS011;5310;48.638;9.060;2022-11-04T14:37:23;0.70;;;0.70;;
10523;SDS011;5310;48.638;9.060;2022-11-04T14:39:54;0.60;;;0.60;;
10523;SDS011;5310;48.638;9.060;2022-11-04T14:45:07;0.60;;;0.60;;
10523;SDS011;5310;48.638;9.060;2022-11-04T14:47:33;0.67;;;0.67;;
10523;SDS011;5310;48.638;9.060;2022-11-04T14:50:06;0.60;;;0.60;;
10523;SDS011;5310;48.638;9.060;2022-11-04T14:57:40;0.60;;;0.60;;
10523;SDS011;5310;48.638;9.060;2022-11-04T15:03:09;0.60;;;0.60;;
10523;SDS011;5310;48.638;9.060;2022-11-04T15:05:37;0.60;;;0.60;;
10523;SDS011;5310;48.638;9.060;2022-11-04T15:10:49;0.70;;;0.70;;
10523;SDS011;5310;48.638;9.060;2022-11-04T15:13:17;0.60;;;0.60;;
10523;SDS011;5310;48.638;9.060;2022-11-04T15:15:43;0.60;;;0.60;;
10523;SDS011;5310;48.638;9.060;2022-11-04T15:18:15;0.60;;;0.60;;
10523;SDS011;5310;48.638;9.060;2022-11-04T15:20:53;0.70;;;0.70;;
10523;SDS011;5310;48.638;9.060;2022-11-04T15:23:32;0.60;;;0.60;;
10523;SDS011;5310;48.638;9.060;2022-11-04T15:26:01;0.70;;;0.70;;
10523;SDS011;5310;48.638;9.060;2022-11-04T15:28:29;0.60;;;0.60;;
10523;SDS011;5310;48.638;9.060;2022-11-04T15:31:33;0.70;;;0.70;;
10523;SDS011;5310;48.638;9.060;2022-11-04T15:33:52;0.70;;;0.70;;
10523;SDS011;5310;48.638;9.060;2022-11-04T15:36:22;0.63;;;0.63;;
10523;SDS011;5310;48.638;9.060;2022-11-04T15:38:57;0.60;;;0.60;;
10523;SDS011;5310;48.638;9.060;2022-11-04T15:41:26;0.70;;;0.70;;
10523;SDS011;5310;48.638;9.060;2022-11-04T15:44:22;0.80;;;0.80;;
10523;SDS011;5310;48.638;9.060;2022-11-04T15:46:56;0.60;;;0.60;;
10523;SDS011;5310;48.638;9.060;2022-11-04T15:49:24;0.70;;;0.70;;
10523;SDS011;5310;48.638;9.060;2022-11-04T15:51:52;0.63;;;0.63;;
10523;SDS011;5310;48.638;9.060;2022-11-04T15:54:23;0.70;;;0.70;;
10523;SDS011;5310;48.638;9.060;2022-11-04T15:56:53;0.70;;;0.70;;
10523;SDS011;5310;48.638;9.060;2022-11-04T15:59:25;0.67;;;0.67;;
10523;SDS011;5310;48.638;9.060;2022-11-04T16:01:53;0.70;;;0.70;;
10523;SDS011;5310;48.638;9.060;2022-11-04T16:04:20;0.70;;;0.70;;
10523;SDS011;5310;48.638;9.060;2022-11-04T16:07:01;0.70;;;0.70;;
10523;SDS011;5310;48.638;9.060;2022-11-04T16:09:28;0.70;;;0.70;;
10523;SDS011;5310;48.638;9.060;2022-11-04T16:12:10;0.67;;;0.67;;
10523;SDS011;5310;48.638;9.060;2022-11-04T16:14:45;0.70;;;0.70;;
10523;SDS011;5310;48.638;9.060;2022-11-04T16:17:11;0.77;;;0.77;;
10523;SDS011;5310;48.638;9.060;2022-11-04T16:19:37;0.80;;;0.80;;
10523;SDS011;5310;48.638;9.060;2022-11-04T16:22:04;0.80;;;0.80;;
10523;SDS011;5310;48.638;9.060;2022-11-04T16:24:33;0.63;;;0.63;;
10523;SDS011;5310;48.638;9.060;2022-11-04T16:27:00;0.70;;;0.70;;
10523;SDS011;5310;48.638;9.060;2022-11-04T16:29:29;0.70;;;0.70;;
10523;SDS011;5310;48.638;9.060;2022-11-04T16:32:29;0.60;;;0.60;;
10523;SDS011;5310;48.638;9.060;2022-11-04T16:34:49;0.70;;;0.70;;
10523;SDS011;5310;48.638;9.060;2022-11-04T16:37:16;0.70;;;0.70;;
10523;SDS011;5310;48.638;9.060;2022-11-04T16:39:43;0.60;;;0.60;;
10523;SDS011;5310;48.638;9.060;2022-11-04T16:42:10;0.70;;;0.70;;
10523;SDS011;5310;48.638;9.060;2022-11-04T16:44:38;0.60;;;0.60;;
10523;SDS011;5310;48.638;9.060;2022-11-04T16:47:05;0.60;;;0.60;;
10523;SDS011;5310;48.638;9.060;2022-11-04T16:49:31;0.60;;;0.60;;
10523;SDS011;5310;48.638;9.060;2022-11-04T16:52:00;0.60;;;0.60;;
10523;SDS011;5310;48.638;9.060;2022-11-04T16:54:27;0.60;;;0.60;;
10523;SDS011;5310;48.638;9.060;2022-11-04T16:56:53;0.80;;;0.80;;
10523;SDS011;5310;48.638;9.060;2022-11-04T16:59:19;0.60;;;0.60;;
10523;SDS011;5310;48.638;9.060;2022-11-04T17:01:45;0.60;;;0.60;;
10523;SDS011;5310;48.638;9.060;2022-11-04T17:04:11;0.60;;;0.60;;
10523;SDS011;5310;48.638;9.060;2022-11-04T17:06:37;0.60;;;0.60;;
10523;SDS011;5310;48.638;9.060;2022-11-04T17:09:05;0.70;;;0.70;;
10523;SDS011;5310;48.638;9.060;2022-11-04T17:11:32;0.80;;;0.80;;
10523;SDS011;5310;48.638;9.060;2022-11-04T17:13:58;0.70;;;0.70;;
10523;SDS011;5310;48.638;9.060;2022-11-04T17:16:24;0.60;;;0.60;;
10523;SDS011;5310;48.638;9.060;2022-11-04T17:18:50;0.60;;;0.60;;
10523;SDS011;5310;48.638;9.060;2022-11-04T17:21:16;0.70;;;0.70;;
10523;SDS011;5310;48.638;9.060;2022-11-04T17:23:44;0.70;;;0.70;;